sensor_id;sensor_type;location;lat;lon;timestamp;temperature;humidity
60309;DHT22;50313;52.894;6.492;2023-08-31T00:02:14;10.30;99.90
60309;DHT22;50313;52.894;6.492;2023-08-31T00:04:40;10.40;99.90
60309;DHT22;50313;52.894;6.492;2023-08-31T00:07:06;10.50;99.90
60309;DHT22;50313;52.894;6.492;2023-08-31T00:09:32;10.60;99.90
60309;DHT22;50313;52.894;6.492;2023-08-31T00:11:58;10.60;99.90
60309;DHT22;50313;52.894;6.492;2023-08-31T00:14:27;10.80;99.90
60309;DHT22;50313;52.894;6.492;2023-08-31T00:16:53;11.00;99.90
60309;DHT22;50313;52.894;6.492;2023-08-31T00:19:19;11.00;99.90
60309;DHT22;50313;52.894;6.492;2023-08-31T00:21:45;11.10;99.90
60309;DHT22;50313;52.894;6.492;2023-08-31T00:24:11;11.10;99.90
60309;DHT22;50313;52.894;6.492;2023-08-31T00:26:37;11.20;99.90
60309;DHT22;50313;52.894;6.492;2023-08-31T00:29:09;11.20;99.90
60309;DHT22;50313;52.894;6.492;2023-08-31T00:31:37;11.20;99.90
60309;DHT22;50313;52.894;6.492;2023-08-31T00:34:03;11.10;99.90
60309;DHT22;50313;52.894;6.492;2023-08-31T00:36:33;11.10;99.90
60309;DHT22;50313;52.894;6.492;2023-08-31T00:39:05;11.10;99.90
60309;DHT22;50313;52.894;6.492;2023-08-31T00:41:32;11.00;99.90
60309;DHT22;50313;52.894;6.492;2023-08-31T00:43:58;11.00;99.90
60309;DHT22;50313;52.894;6.492;2023-08-31T00:46:24;11.00;99.90
60309;DHT22;50313;52.894;6.492;2023-08-31T00:48:54;10.90;99.90
60309;DHT22;50313;52.894;6.492;2023-08-31T00:51:20;10.80;99.90
60309;DHT22;50313;52.894;6.492;2023-08-31T00:53:47;10.80;99.90
60309;DHT22;50313;52.894;6.492;2023-08-31T00:56:14;10.70;99.90
60309;DHT22;50313;52.894;6.492;2023-08-31T00:58:40;10.70;99.90
60309;DHT22;50313;52.894;6.492;2023-08-31T01:01:36;10.70;99.90
60309;DHT22;50313;52.894;6.492;2023-08-31T01:04:20;10.60;99.90
60309;DHT22;50313;52.894;6.492;2023-08-31T01:14:23;10.60;99.90
60309;DHT22;50313;52.894;6.492;2023-08-31T01:16:51;10.60;99.90
60309;DHT22;50313;52.894;6.492;2023-08-31T01:19:50;10.50;99.90
60309;DHT22;50313;52.894;6.492;2023-08-31T01:24:58;10.50;99.90
60309;DHT22;50313;52.894;6.492;2023-08-31T01:27:26;10.40;99.90
60309;DHT22;50313;52.894;6.492;2023-08-31T01:29:54;10.40;99.90
60309;DHT22;50313;52.894;6.492;2023-08-31T01:32:20;10.40;99.90
60309;DHT22;50313;52.894;6.492;2023-08-31T01:34:46;10.30;99.90
60309;DHT22;50313;52.894;6.492;2023-08-31T01:37:17;10.30;99.90
60309;DHT22;50313;52.894;6.492;2023-08-31T01:42:13;10.20;99.90
60309;DHT22;50313;52.894;6.492;2023-08-31T01:44:41;10.20;99.90
60309;DHT22;50313;52.894;6.492;2023-08-31T01:47:09;10.20;99.90
60309;DHT22;50313;52.894;6.492;2023-08-31T01:49:39;10.20;99.90
60309;DHT22;50313;52.894;6.492;2023-08-31T01:52:06;10.20;99.90
60309;DHT22;50313;52.894;6.492;2023-08-31T01:54:33;10.10;99.90
60309;DHT22;50313;52.894;6.492;2023-08-31T01:56:59;10.10;99.90
60309;DHT22;50313;52.894;6.492;2023-08-31T01:59:26;10.10;99.90
60309;DHT22;50313;52.894;6.492;2023-08-31T02:01:52;10.10;99.90
60309;DHT22;50313;52.894;6.492;2023-08-31T02:04:18;10.10;99.90
60309;DHT22;50313;52.894;6.492;2023-08-31T02:06:44;10.10;99.90
60309;DHT22;50313;52.894;6.492;2023-08-31T02:09:10;10.10;99.90
60309;DHT22;50313;52.894;6.492;2023-08-31T02:11:36;10.10;99.90
60309;DHT22;50313;52.894;6.492;2023-08-31T02:14:06;10.20;99.90
60309;DHT22;50313;52.894;6.492;2023-08-31T02:16:33;10.20;99.90
60309;DHT22;50313;52.894;6.492;2023-08-31T02:18:59;10.20;99.90
60309;DHT22;50313;52.894;6.492;2023-08-31T02:21:26;10.20;99.90
60309;DHT22;50313;52.894;6.492;2023-08-31T02:23:51;10.20;99.90
60309;DHT22;50313;52.894;6.492;2023-08-31T02:26:17;10.20;99.90
60309;DHT22;50313;52.894;6.492;2023-08-31T02:28:43;10.20;99.90
60309;DHT22;50313;52.894;6.492;2023-08-31T02:31:10;10.20;99.90
60309;DHT22;50313;52.894;6.492;2023-08-31T02:33:37;10.10;99.90
60309;DHT22;50313;52.894;6.492;2023-08-31T02:36:03;10.10;99.90
60309;DHT22;50313;52.894;6.492;2023-08-31T02:38:29;10.10;99.90
60309;DHT22;50313;52.894;6.492;2023-08-31T02:40:55;10.10;99.90
60309;DHT22;50313;52.894;6.492;2023-08-31T02:43:20;10.10;99.90
60309;DHT22;50313;52.894;6.492;2023-08-31T02:45:46;10.10;99.90
60309;DHT22;50313;52.894;6.492;2023-08-31T02:48:13;10.10;99.90
60309;DHT22;50313;52.894;6.492;2023-08-31T02:50:39;10.20;99.90
60309;DHT22;50313;52.894;6.492;2023-08-31T02:53:05;10.10;99.90
60309;DHT22;50313;52.894;6.492;2023-08-31T02:55:34;10.10;99.90
60309;DHT22;50313;52.894;6.492;2023-08-31T02:58:00;10.20;99.90
60309;DHT22;50313;52.894;6.492;2023-08-31T03:00:25;10.10;99.90
60309;DHT22;50313;52.894;6.492;2023-08-31T03:02:51;10.10;99.90
60309;DHT22;50313;52.894;6.492;2023-08-31T03:05:19;10.20;99.90
60309;DHT22;50313;52.894;6.492;2023-08-31T03:07:47;10.20;99.90
60309;DHT22;50313;52.894;6.492;2023-08-31T03:10:13;10.10;99.90
60309;DHT22;50313;52.894;6.492;2023-08-31T03:12:39;10.10;99.90
60309;DHT22;50313;52.894;6.492;2023-08-31T03:15:06;10.10;99.90
60309;DHT22;50313;52.894;6.492;2023-08-31T03:17:32;10.20;99.90
60309;DHT22;50313;52.894;6.492;2023-08-31T03:19:58;10.20;99.90
60309;DHT22;50313;52.894;6.492;2023-08-31T03:22:24;10.20;99.90
60309;DHT22;50313;52.894;6.492;2023-08-31T03:24:50;10.20;99.90
60309;DHT22;50313;52.894;6.492;2023-08-31T03:27:16;10.20;99.90
60309;DHT22;50313;52.894;6.492;2023-08-31T03:29:42;10.20;99.90
60309;DHT22;50313;52.894;6.492;2023-08-31T03:32:08;10.20;99.90
60309;DHT22;50313;52.894;6.492;2023-08-31T03:34:34;10.20;99.90
60309;DHT22;50313;52.894;6.492;2023-08-31T03:36:59;10.20;99.90
60309;DHT22;50313;52.894;6.492;2023-08-31T03:39:25;10.30;99.90
60309;DHT22;50313;52.894;6.492;2023-08-31T03:41:51;10.30;99.90
60309;DHT22;50313;52.894;6.492;2023-08-31T03:44:17;10.30;99.90
60309;DHT22;50313;52.894;6.492;2023-08-31T03:46:43;10.30;99.90
60309;DHT22;50313;52.894;6.492;2023-08-31T03:49:09;10.30;99.90
60309;DHT22;50313;52.894;6.492;2023-08-31T03:51:36;10.30;99.90
60309;DHT22;50313;52.894;6.492;2023-08-31T03:54:02;10.40;99.90
60309;DHT22;50313;52.894;6.492;2023-08-31T03:56:28;10.40;99.90
60309;DHT22;50313;52.894;6.492;2023-08-31T03:58:54;10.40;99.90
60309;DHT22;50313;52.894;6.492;2023-08-31T04:01:20;10.40;99.90
60309;DHT22;50313;52.894;6.492;2023-08-31T04:03:46;10.40;99.90
60309;DHT22;50313;52.894;6.492;2023-08-31T04:06:12;10.50;99.90
60309;DHT22;50313;52.894;6.492;2023-08-31T04:08:38;10.50;99.90
60309;DHT22;50313;52.894;6.492;2023-08-31T04:11:04;10.50;99.90
60309;DHT22;50313;52.894;6.492;2023-08-31T04:13:30;10.60;99.90
60309;DHT22;50313;52.894;6.492;2023-08-31T04:15:56;10.60;99.90
60309;DHT22;50313;52.894;6.492;2023-08-31T04:18:21;10.60;99.90
60309;DHT22;50313;52.894;6.492;2023-08-31T04:20:52;10.70;99.90
60309;DHT22;50313;52.894;6.492;2023-08-31T04:23:19;10.70;99.90
60309;DHT22;50313;52.894;6.492;2023-08-31T04:25:45;10.70;99.90
60309;DHT22;50313;52.894;6.492;2023-08-31T04:28:11;10.80;99.90
60309;DHT22;50313;52.894;6.492;2023-08-31T04:30:38;10.70;99.90
60309;DHT22;50313;52.894;6.492;2023-08-31T04:33:05;10.70;99.90
60309;DHT22;50313;52.894;6.492;2023-08-31T04:35:32;10.70;99.90
60309;DHT22;50313;52.894;6.492;2023-08-31T04:37:58;10.60;99.90
60309;DHT22;50313;52.894;6.492;2023-08-31T04:40:24;10.60;99.90
60309;DHT22;50313;52.894;6.492;2023-08-31T04:42:50;10.60;99.90
60309;DHT22;50313;52.894;6.492;2023-08-31T04:45:16;10.60;99.90
60309;DHT22;50313;52.894;6.492;2023-08-31T04:47:42;10.50;99.90
60309;DHT22;50313;52.894;6.492;2023-08-31T04:50:09;10.50;99.90
60309;DHT22;50313;52.894;6.492;2023-08-31T04:52:35;10.50;99.90
60309;DHT22;50313;52.894;6.492;2023-08-31T04:55:01;10.50;99.90
60309;DHT22;50313;52.894;6.492;2023-08-31T04:57:29;10.50;99.90
60309;DHT22;50313;52.894;6.492;2023-08-31T04:59:55;10.50;99.90
60309;DHT22;50313;52.894;6.492;2023-08-31T05:02:21;10.50;99.90
60309;DHT22;50313;52.894;6.492;2023-08-31T05:04:46;10.60;99.90
60309;DHT22;50313;52.894;6.492;2023-08-31T05:07:12;10.60;99.90
60309;DHT22;50313;52.894;6.492;2023-08-31T05:09:38;10.60;99.90
60309;DHT22;50313;52.894;6.492;2023-08-31T05:12:04;10.60;99.90
60309;DHT22;50313;52.894;6.492;2023-08-31T05:14:30;10.60;99.90
60309;DHT22;50313;52.894;6.492;2023-08-31T05:16:56;10.70;99.90
60309;DHT22;50313;52.894;6.492;2023-08-31T05:19:22;10.60;99.90
60309;DHT22;50313;52.894;6.492;2023-08-31T05:21:48;10.70;99.90
60309;DHT22;50313;52.894;6.492;2023-08-31T05:24:14;10.70;99.90
60309;DHT22;50313;52.894;6.492;2023-08-31T05:26:40;10.70;99.90
60309;DHT22;50313;52.894;6.492;2023-08-31T05:29:06;10.70;99.90
60309;DHT22;50313;52.894;6.492;2023-08-31T05:31:32;10.70;99.90
60309;DHT22;50313;52.894;6.492;2023-08-31T05:33:58;10.70;99.90
60309;DHT22;50313;52.894;6.492;2023-08-31T05:36:24;10.80;99.90
60309;DHT22;50313;52.894;6.492;2023-08-31T05:38:52;10.80;99.90
60309;DHT22;50313;52.894;6.492;2023-08-31T05:41:18;10.90;99.90
60309;DHT22;50313;52.894;6.492;2023-08-31T05:43:44;10.90;99.90
60309;DHT22;50313;52.894;6.492;2023-08-31T05:46:11;11.00;99.90
60309;DHT22;50313;52.894;6.492;2023-08-31T05:48:37;11.10;99.90
60309;DHT22;50313;52.894;6.492;2023-08-31T05:51:03;11.10;99.90
60309;DHT22;50313;52.894;6.492;2023-08-31T05:53:32;11.10;99.90
60309;DHT22;50313;52.894;6.492;2023-08-31T05:55:59;11.20;99.90
60309;DHT22;50313;52.894;6.492;2023-08-31T05:58:31;11.30;99.90
60309;DHT22;50313;52.894;6.492;2023-08-31T06:00:58;11.40;99.90
60309;DHT22;50313;52.894;6.492;2023-08-31T06:03:25;11.50;99.90
60309;DHT22;50313;52.894;6.492;2023-08-31T06:05:51;11.60;99.90
60309;DHT22;50313;52.894;6.492;2023-08-31T06:08:17;11.60;99.90
60309;DHT22;50313;52.894;6.492;2023-08-31T06:10:43;11.60;99.90
60309;DHT22;50313;52.894;6.492;2023-08-31T06:13:09;11.70;99.90
60309;DHT22;50313;52.894;6.492;2023-08-31T06:15:35;11.70;99.90
60309;DHT22;50313;52.894;6.492;2023-08-31T06:18:00;11.70;99.90
60309;DHT22;50313;52.894;6.492;2023-08-31T06:20:26;11.70;99.90
60309;DHT22;50313;52.894;6.492;2023-08-31T06:22:52;11.80;99.90
60309;DHT22;50313;52.894;6.492;2023-08-31T06:25:18;11.90;99.90
60309;DHT22;50313;52.894;6.492;2023-08-31T06:27:44;12.00;99.90
60309;DHT22;50313;52.894;6.492;2023-08-31T06:30:11;12.10;99.90
60309;DHT22;50313;52.894;6.492;2023-08-31T06:32:43;12.20;99.90
60309;DHT22;50313;52.894;6.492;2023-08-31T06:35:13;12.30;99.90
60309;DHT22;50313;52.894;6.492;2023-08-31T06:37:41;12.40;99.90
60309;DHT22;50313;52.894;6.492;2023-08-31T06:40:08;12.40;99.90
60309;DHT22;50313;52.894;6.492;2023-08-31T06:42:35;12.60;99.90
60309;DHT22;50313;52.894;6.492;2023-08-31T06:45:05;12.60;99.90
60309;DHT22;50313;52.894;6.492;2023-08-31T06:47:31;12.70;99.90
60309;DHT22;50313;52.894;6.492;2023-08-31T06:49:57;12.80;99.90
60309;DHT22;50313;52.894;6.492;2023-08-31T06:52:24;12.90;99.90
60309;DHT22;50313;52.894;6.492;2023-08-31T06:54:50;13.00;99.90
60309;DHT22;50313;52.894;6.492;2023-08-31T06:57:23;13.10;99.90
60309;DHT22;50313;52.894;6.492;2023-08-31T06:59:49;13.20;99.90
60309;DHT22;50313;52.894;6.492;2023-08-31T07:02:15;13.30;99.90
60309;DHT22;50313;52.894;6.492;2023-08-31T07:04:41;13.40;99.90
60309;DHT22;50313;52.894;6.492;2023-08-31T07:07:08;13.50;99.90
60309;DHT22;50313;52.894;6.492;2023-08-31T07:09:39;13.60;99.90
60309;DHT22;50313;52.894;6.492;2023-08-31T07:12:05;13.70;99.90
60309;DHT22;50313;52.894;6.492;2023-08-31T07:14:31;13.80;99.90
60309;DHT22;50313;52.894;6.492;2023-08-31T07:16:58;13.90;99.90
60309;DHT22;50313;52.894;6.492;2023-08-31T07:19:24;14.00;99.90
60309;DHT22;50313;52.894;6.492;2023-08-31T07:21:49;14.10;99.90
60309;DHT22;50313;52.894;6.492;2023-08-31T07:24:15;14.40;99.90
60309;DHT22;50313;52.894;6.492;2023-08-31T07:26:41;14.40;99.90
60309;DHT22;50313;52.894;6.492;2023-08-31T07:29:07;14.40;99.90
60309;DHT22;50313;52.894;6.492;2023-08-31T07:31:33;14.30;99.90
60309;DHT22;50313;52.894;6.492;2023-08-31T07:33:58;14.40;99.90
60309;DHT22;50313;52.894;6.492;2023-08-31T07:36:25;14.60;99.90
60309;DHT22;50313;52.894;6.492;2023-08-31T07:38:51;14.80;99.90
60309;DHT22;50313;52.894;6.492;2023-08-31T07:41:16;14.90;99.90
60309;DHT22;50313;52.894;6.492;2023-08-31T07:43:42;14.80;99.90
60309;DHT22;50313;52.894;6.492;2023-08-31T07:46:08;14.90;99.90
60309;DHT22;50313;52.894;6.492;2023-08-31T07:48:34;15.10;99.90
60309;DHT22;50313;52.894;6.492;2023-08-31T07:51:00;15.20;99.90
60309;DHT22;50313;52.894;6.492;2023-08-31T07:53:26;15.20;99.90
60309;DHT22;50313;52.894;6.492;2023-08-31T07:55:56;15.10;99.90
60309;DHT22;50313;52.894;6.492;2023-08-31T07:58:22;15.10;99.90
60309;DHT22;50313;52.894;6.492;2023-08-31T08:00:49;15.10;99.90
60309;DHT22;50313;52.894;6.492;2023-08-31T08:03:15;15.10;99.90
60309;DHT22;50313;52.894;6.492;2023-08-31T08:05:41;15.10;99.90
60309;DHT22;50313;52.894;6.492;2023-08-31T08:08:07;15.10;99.90
60309;DHT22;50313;52.894;6.492;2023-08-31T08:10:33;15.10;99.90
60309;DHT22;50313;52.894;6.492;2023-08-31T08:12:59;15.10;99.90
60309;DHT22;50313;52.894;6.492;2023-08-31T08:15:25;15.30;99.90
60309;DHT22;50313;52.894;6.492;2023-08-31T08:17:51;15.50;99.90
60309;DHT22;50313;52.894;6.492;2023-08-31T08:20:19;15.80;99.90
60309;DHT22;50313;52.894;6.492;2023-08-31T08:22:45;15.90;99.90
60309;DHT22;50313;52.894;6.492;2023-08-31T08:25:11;15.70;99.90
60309;DHT22;50313;52.894;6.492;2023-08-31T08:27:36;15.90;99.90
60309;DHT22;50313;52.894;6.492;2023-08-31T08:30:03;16.10;99.90
60309;DHT22;50313;52.894;6.492;2023-08-31T08:32:29;16.30;99.90
60309;DHT22;50313;52.894;6.492;2023-08-31T08:34:55;16.50;99.90
60309;DHT22;50313;52.894;6.492;2023-08-31T08:37:21;16.80;99.90
60309;DHT22;50313;52.894;6.492;2023-08-31T08:39:50;16.90;98.80
60309;DHT22;50313;52.894;6.492;2023-08-31T08:42:18;17.00;1.40
60309;DHT22;50313;52.894;6.492;2023-08-31T08:44:44;17.00;78.80
60309;DHT22;50313;52.894;6.492;2023-08-31T08:47:11;16.50;1.00
60309;DHT22;50313;52.894;6.492;2023-08-31T08:49:38;16.00;1.00
60309;DHT22;50313;52.894;6.492;2023-08-31T08:52:04;15.30;1.00
60309;DHT22;50313;52.894;6.492;2023-08-31T08:54:30;15.00;46.50
60309;DHT22;50313;52.894;6.492;2023-08-31T08:56:57;14.60;99.90
60309;DHT22;50313;52.894;6.492;2023-08-31T08:59:24;14.60;99.90
60309;DHT22;50313;52.894;6.492;2023-08-31T09:01:50;14.60;99.90
60309;DHT22;50313;52.894;6.492;2023-08-31T09:04:16;14.60;99.90
60309;DHT22;50313;52.894;6.492;2023-08-31T09:06:42;14.80;99.90
60309;DHT22;50313;52.894;6.492;2023-08-31T09:09:09;15.20;99.90
60309;DHT22;50313;52.894;6.492;2023-08-31T09:11:35;15.60;99.90
60309;DHT22;50313;52.894;6.492;2023-08-31T09:14:16;16.00;99.90
60309;DHT22;50313;52.894;6.492;2023-08-31T09:16:47;16.40;99.90
60309;DHT22;50313;52.894;6.492;2023-08-31T09:19:21;16.90;99.90
60309;DHT22;50313;52.894;6.492;2023-08-31T09:21:52;16.70;99.90
60309;DHT22;50313;52.894;6.492;2023-08-31T09:24:18;16.70;99.90
60309;DHT22;50313;52.894;6.492;2023-08-31T09:26:48;16.60;81.00
60309;DHT22;50313;52.894;6.492;2023-08-31T09:29:17;16.50;83.70
60309;DHT22;50313;52.894;6.492;2023-08-31T09:31:44;16.70;99.90
60309;DHT22;50313;52.894;6.492;2023-08-31T09:34:11;16.70;99.90
60309;DHT22;50313;52.894;6.492;2023-08-31T09:36:38;16.60;97.90
60309;DHT22;50313;52.894;6.492;2023-08-31T09:39:05;16.50;64.00
60309;DHT22;50313;52.894;6.492;2023-08-31T09:41:31;17.00;99.90
60309;DHT22;50313;52.894;6.492;2023-08-31T09:44:15;17.30;90.50
60309;DHT22;50313;52.894;6.492;2023-08-31T09:46:45;17.70;99.90
60309;DHT22;50313;52.894;6.492;2023-08-31T09:49:16;18.00;1.00
60309;DHT22;50313;52.894;6.492;2023-08-31T09:51:44;18.10;1.00
60309;DHT22;50313;52.894;6.492;2023-08-31T09:54:16;18.20;1.00
60309;DHT22;50313;52.894;6.492;2023-08-31T09:56:44;18.10;99.90
60309;DHT22;50313;52.894;6.492;2023-08-31T09:59:11;18.30;99.90
60309;DHT22;50313;52.894;6.492;2023-08-31T10:01:39;18.20;99.90
60309;DHT22;50313;52.894;6.492;2023-08-31T10:04:05;18.30;99.90
60309;DHT22;50313;52.894;6.492;2023-08-31T10:06:43;18.20;99.90
60309;DHT22;50313;52.894;6.492;2023-08-31T10:09:09;18.00;84.90
60309;DHT22;50313;52.894;6.492;2023-08-31T10:11:37;18.20;99.90
60309;DHT22;50313;52.894;6.492;2023-08-31T10:14:04;18.30;99.90
60309;DHT22;50313;52.894;6.492;2023-08-31T10:16:30;18.40;99.90
60309;DHT22;50313;52.894;6.492;2023-08-31T10:18:57;18.40;32.60
60309;DHT22;50313;52.894;6.492;2023-08-31T10:21:24;18.50;99.90
60309;DHT22;50313;52.894;6.492;2023-08-31T10:23:51;18.50;1.00
60309;DHT22;50313;52.894;6.492;2023-08-31T10:26:30;18.60;1.00
60309;DHT22;50313;52.894;6.492;2023-08-31T10:28:57;18.40;1.00
60309;DHT22;50313;52.894;6.492;2023-08-31T10:31:24;18.20;1.00
60309;DHT22;50313;52.894;6.492;2023-08-31T10:34:03;17.90;99.90
60309;DHT22;50313;52.894;6.492;2023-08-31T10:36:45;17.80;99.90
60309;DHT22;50313;52.894;6.492;2023-08-31T10:39:13;17.80;99.90
60309;DHT22;50313;52.894;6.492;2023-08-31T10:41:39;18.10;1.00
60309;DHT22;50313;52.894;6.492;2023-08-31T10:44:25;18.20;99.90
60309;DHT22;50313;52.894;6.492;2023-08-31T10:46:52;18.20;99.90
60309;DHT22;50313;52.894;6.492;2023-08-31T10:49:22;18.10;99.90
60309;DHT22;50313;52.894;6.492;2023-08-31T10:51:53;18.10;99.90
60309;DHT22;50313;52.894;6.492;2023-08-31T10:54:26;18.20;1.00
60309;DHT22;50313;52.894;6.492;2023-08-31T10:59:22;18.60;99.90
60309;DHT22;50313;52.894;6.492;2023-08-31T11:01:58;18.60;1.00
60309;DHT22;50313;52.894;6.492;2023-08-31T11:04:27;18.90;99.90
60309;DHT22;50313;52.894;6.492;2023-08-31T11:07:16;18.90;99.90
60309;DHT22;50313;52.894;6.492;2023-08-31T11:09:44;19.30;1.00
60309;DHT22;50313;52.894;6.492;2023-08-31T11:12:10;19.20;99.90
60309;DHT22;50313;52.894;6.492;2023-08-31T11:14:36;19.40;99.90
60309;DHT22;50313;52.894;6.492;2023-08-31T11:17:03;19.30;99.90
60309;DHT22;50313;52.894;6.492;2023-08-31T11:19:31;19.20;99.90
60309;DHT22;50313;52.894;6.492;2023-08-31T11:21:59;19.20;99.90
60309;DHT22;50313;52.894;6.492;2023-08-31T11:24:26;19.40;99.90
60309;DHT22;50313;52.894;6.492;2023-08-31T11:26:53;19.80;99.90
60309;DHT22;50313;52.894;6.492;2023-08-31T11:29:19;20.00;99.90
60309;DHT22;50313;52.894;6.492;2023-08-31T11:31:45;20.10;99.90
60309;DHT22;50313;52.894;6.492;2023-08-31T11:34:16;19.70;99.90
60309;DHT22;50313;52.894;6.492;2023-08-31T11:36:44;19.70;99.90
60309;DHT22;50313;52.894;6.492;2023-08-31T11:39:10;19.50;99.90
60309;DHT22;50313;52.894;6.492;2023-08-31T11:41:37;19.30;99.90
60309;DHT22;50313;52.894;6.492;2023-08-31T11:44:11;19.30;99.90
60309;DHT22;50313;52.894;6.492;2023-08-31T11:46:39;19.00;99.90
60309;DHT22;50313;52.894;6.492;2023-08-31T11:49:07;19.00;99.90
60309;DHT22;50313;52.894;6.492;2023-08-31T11:51:34;19.00;99.90
60309;DHT22;50313;52.894;6.492;2023-08-31T11:54:02;18.90;99.90
60309;DHT22;50313;52.894;6.492;2023-08-31T11:56:44;19.00;99.90
60309;DHT22;50313;52.894;6.492;2023-08-31T11:59:16;19.00;99.90
60309;DHT22;50313;52.894;6.492;2023-08-31T12:01:43;19.30;1.00
60309;DHT22;50313;52.894;6.492;2023-08-31T12:04:14;19.50;1.00
60309;DHT22;50313;52.894;6.492;2023-08-31T12:06:41;19.50;1.00
60309;DHT22;50313;52.894;6.492;2023-08-31T12:09:10;19.60;1.00
60309;DHT22;50313;52.894;6.492;2023-08-31T12:11:36;19.30;99.90
60309;DHT22;50313;52.894;6.492;2023-08-31T12:14:03;19.10;1.00
60309;DHT22;50313;52.894;6.492;2023-08-31T12:16:35;19.00;99.90
60309;DHT22;50313;52.894;6.492;2023-08-31T12:19:04;18.70;99.90
60309;DHT22;50313;52.894;6.492;2023-08-31T12:21:31;18.20;99.90
60309;DHT22;50313;52.894;6.492;2023-08-31T12:24:00;17.80;1.00
60309;DHT22;50313;52.894;6.492;2023-08-31T12:26:26;17.60;99.10
60309;DHT22;50313;52.894;6.492;2023-08-31T12:28:52;17.80;99.90
60309;DHT22;50313;52.894;6.492;2023-08-31T12:31:18;18.30;99.90
60309;DHT22;50313;52.894;6.492;2023-08-31T12:33:44;18.70;99.90
60309;DHT22;50313;52.894;6.492;2023-08-31T12:36:10;18.90;68.40
60309;DHT22;50313;52.894;6.492;2023-08-31T12:38:36;19.20;38.70
60309;DHT22;50313;52.894;6.492;2023-08-31T12:41:02;19.30;1.00
60309;DHT22;50313;52.894;6.492;2023-08-31T12:43:28;19.10;1.00
60309;DHT22;50313;52.894;6.492;2023-08-31T12:45:57;19.00;99.90
60309;DHT22;50313;52.894;6.492;2023-08-31T12:48:23;19.20;99.90
60309;DHT22;50313;52.894;6.492;2023-08-31T12:50:49;19.20;99.90
60309;DHT22;50313;52.894;6.492;2023-08-31T12:53:15;19.50;99.90
60309;DHT22;50313;52.894;6.492;2023-08-31T12:55:41;19.90;99.90
60309;DHT22;50313;52.894;6.492;2023-08-31T12:58:07;20.00;99.90
60309;DHT22;50313;52.894;6.492;2023-08-31T13:00:33;19.80;99.90
60309;DHT22;50313;52.894;6.492;2023-08-31T13:03:00;19.70;99.90
60309;DHT22;50313;52.894;6.492;2023-08-31T13:05:28;19.30;99.90
60309;DHT22;50313;52.894;6.492;2023-08-31T13:07:55;19.60;46.10
60309;DHT22;50313;52.894;6.492;2023-08-31T13:10:21;19.90;99.90
60309;DHT22;50313;52.894;6.492;2023-08-31T13:12:46;19.70;33.20
60309;DHT22;50313;52.894;6.492;2023-08-31T13:15:12;20.40;99.90
60309;DHT22;50313;52.894;6.492;2023-08-31T13:17:39;20.50;99.90
60309;DHT22;50313;52.894;6.492;2023-08-31T13:20:05;20.60;42.70
60309;DHT22;50313;52.894;6.492;2023-08-31T13:22:32;20.50;99.90
60309;DHT22;50313;52.894;6.492;2023-08-31T13:24:57;20.40;99.90
60309;DHT22;50313;52.894;6.492;2023-08-31T13:27:24;20.40;99.90
60309;DHT22;50313;52.894;6.492;2023-08-31T13:29:51;19.80;99.90
60309;DHT22;50313;52.894;6.492;2023-08-31T13:32:17;19.70;4.50
60309;DHT22;50313;52.894;6.492;2023-08-31T13:34:43;19.10;99.90
60309;DHT22;50313;52.894;6.492;2023-08-31T13:37:08;18.80;1.00
60309;DHT22;50313;52.894;6.492;2023-08-31T13:39:36;18.40;1.00
60309;DHT22;50313;52.894;6.492;2023-08-31T13:42:03;18.00;99.90
60309;DHT22;50313;52.894;6.492;2023-08-31T13:44:29;18.20;99.90
60309;DHT22;50313;52.894;6.492;2023-08-31T13:46:56;18.30;99.90
60309;DHT22;50313;52.894;6.492;2023-08-31T13:49:22;18.20;99.90
60309;DHT22;50313;52.894;6.492;2023-08-31T13:51:48;18.20;99.90
60309;DHT22;50313;52.894;6.492;2023-08-31T13:54:14;18.20;99.90
60309;DHT22;50313;52.894;6.492;2023-08-31T13:56:40;18.40;99.90
60309;DHT22;50313;52.894;6.492;2023-08-31T13:59:06;18.70;1.00
60309;DHT22;50313;52.894;6.492;2023-08-31T14:01:32;19.10;1.00
60309;DHT22;50313;52.894;6.492;2023-08-31T14:03:57;18.90;1.00
60309;DHT22;50313;52.894;6.492;2023-08-31T14:06:23;19.00;1.00
60309;DHT22;50313;52.894;6.492;2023-08-31T14:08:49;19.20;47.80
60309;DHT22;50313;52.894;6.492;2023-08-31T14:11:15;19.10;99.90
60309;DHT22;50313;52.894;6.492;2023-08-31T14:13:43;19.10;1.00
60309;DHT22;50313;52.894;6.492;2023-08-31T14:16:09;18.90;99.90
60309;DHT22;50313;52.894;6.492;2023-08-31T14:18:35;19.70;99.90
60309;DHT22;50313;52.894;6.492;2023-08-31T14:21:01;20.30;1.00
60309;DHT22;50313;52.894;6.492;2023-08-31T14:23:27;20.20;82.30
60309;DHT22;50313;52.894;6.492;2023-08-31T14:25:53;20.90;92.10
60309;DHT22;50313;52.894;6.492;2023-08-31T14:28:19;21.50;92.90
60309;DHT22;50313;52.894;6.492;2023-08-31T14:30:45;20.80;93.90
60309;DHT22;50313;52.894;6.492;2023-08-31T14:33:11;20.90;94.10
60309;DHT22;50313;52.894;6.492;2023-08-31T14:35:37;19.70;93.20
60309;DHT22;50313;52.894;6.492;2023-08-31T14:38:04;19.00;96.00
60309;DHT22;50313;52.894;6.492;2023-08-31T14:40:30;18.50;99.70
60309;DHT22;50313;52.894;6.492;2023-08-31T14:42:56;18.10;99.90
60309;DHT22;50313;52.894;6.492;2023-08-31T14:45:22;17.60;99.90
60309;DHT22;50313;52.894;6.492;2023-08-31T14:47:48;17.70;99.90
60309;DHT22;50313;52.894;6.492;2023-08-31T14:50:14;18.80;99.90
60309;DHT22;50313;52.894;6.492;2023-08-31T14:52:39;19.70;99.90
60309;DHT22;50313;52.894;6.492;2023-08-31T14:55:05;19.40;99.90
60309;DHT22;50313;52.894;6.492;2023-08-31T14:57:32;18.80;99.90
60309;DHT22;50313;52.894;6.492;2023-08-31T14:59:57;18.60;99.90
60309;DHT22;50313;52.894;6.492;2023-08-31T15:02:27;18.60;99.90
60309;DHT22;50313;52.894;6.492;2023-08-31T15:04:53;18.90;99.90
60309;DHT22;50313;52.894;6.492;2023-08-31T15:07:19;20.80;99.90
60309;DHT22;50313;52.894;6.492;2023-08-31T15:09:45;21.20;98.80
60309;DHT22;50313;52.894;6.492;2023-08-31T15:12:11;22.20;98.00
60309;DHT22;50313;52.894;6.492;2023-08-31T15:14:37;23.30;95.40
60309;DHT22;50313;52.894;6.492;2023-08-31T15:17:06;22.70;90.60
60309;DHT22;50313;52.894;6.492;2023-08-31T15:19:32;23.00;87.30
60309;DHT22;50313;52.894;6.492;2023-08-31T15:21:59;21.50;88.10
60309;DHT22;50313;52.894;6.492;2023-08-31T15:24:25;20.70;90.50
60309;DHT22;50313;52.894;6.492;2023-08-31T15:26:51;21.20;90.80
60309;DHT22;50313;52.894;6.492;2023-08-31T15:29:17;22.00;90.40
60309;DHT22;50313;52.894;6.492;2023-08-31T15:31:42;22.40;87.20
60309;DHT22;50313;52.894;6.492;2023-08-31T15:34:11;22.60;87.40
60309;DHT22;50313;52.894;6.492;2023-08-31T15:36:37;21.70;84.90
60309;DHT22;50313;52.894;6.492;2023-08-31T15:39:03;22.20;86.30
60309;DHT22;50313;52.894;6.492;2023-08-31T15:41:29;21.90;88.40
60309;DHT22;50313;52.894;6.492;2023-08-31T15:44:01;20.80;90.30
60309;DHT22;50313;52.894;6.492;2023-08-31T15:46:29;20.40;90.20
60309;DHT22;50313;52.894;6.492;2023-08-31T15:48:55;19.80;92.20